Time;durP1;ratioP1;P1;durP2;ratioP2;P2;SDS_P1;SDS_P2;PMS_P1;PMS_P2;Temp;Humidity;BMP_temperature;BMP_pressure;BME280_temperature;BME280_humidity;BME280_pressure;Samples;Min_cycle;Max_cycle;Signal;HPM_P1;HPM_P2
2023/06/13 00:01:06;;;;;;;;;16.25;16.25;;;;;;;;4957259;28;45372;-68
2023/06/13 00:03:33;;;;;;;;;18.25;15.75;;;;;;;;4956897;28;46142;-68
2023/06/13 00:06:01;;;;;;;;;13.75;13.75;;;;;;;;4956943;28;45357;-68
2023/06/13 00:08:26;;;;;;;;;17.00;16.75;;;;;;;;4956446;28;45394;-68
2023/06/13 00:10:51;;;;;;;;;23.00;18.50;;;;;;;;4956718;28;45413;-68
2023/06/13 00:13:17;;;;;;;;;24.00;19.75;;;;;;;;4956054;28;45554;-68
2023/06/13 00:15:49;;;;;;;;;18.00;15.50;;;;;;;;4948371;28;45524;-68
2023/06/13 00:18:15;;;;;;;;;18.25;16.00;;;;;;;;4957492;28;45309;-69
2023/06/13 00:20:41;;;;;;;;;15.75;15.75;;;;;;;;4956991;28;45322;-68
2023/06/13 00:23:06;;;;;;;;;15.25;15.25;;;;;;;;4956319;28;45697;-68
2023/06/13 00:25:31;;;;;;;;;14.75;14.75;;;;;;;;4956344;28;45643;-69
2023/06/13 00:27:56;;;;;;;;;18.50;18.50;;;;;;;;4956846;28;45422;-69
2023/06/13 00:30:21;;;;;;;;;18.00;18.00;;;;;;;;4957583;28;45331;-68
2023/06/13 00:32:47;;;;;;;;;20.50;19.00;;;;;;;;4956896;28;47217;-68
2023/06/13 00:35:13;;;;;;;;;19.50;19.50;;;;;;;;4954423;28;45679;-69
2023/06/13 00:37:39;;;;;;;;;15.50;15.50;;;;;;;;4956529;28;45659;-68
2023/06/13 00:40:05;;;;;;;;;19.25;17.00;;;;;;;;4956565;28;45568;-69
2023/06/13 00:42:31;;;;;;;;;14.00;14.00;;;;;;;;4946396;28;45960;-68
2023/06/13 00:45:17;;;;;;;;;19.00;15.00;;;;;;;;4938060;28;45454;-68
2023/06/13 00:47:42;;;;;;;;;21.00;21.00;;;;;;;;4938175;28;45387;-68
2023/06/13 00:50:08;;;;;;;;;23.25;18.00;;;;;;;;4936786;28;45583;-69
2023/06/13 00:52:34;;;;;;;;;21.00;19.25;;;;;;;;4949323;28;46542;-68
2023/06/13 00:54:59;;;;;;;;;18.00;18.00;;;;;;;;4955971;28;45334;-68
2023/06/13 00:57:24;;;;;;;;;22.00;19.50;;;;;;;;4955778;28;45266;-68
2023/06/13 00:59:50;;;;;;;;;18.00;17.75;;;;;;;;4956044;28;45451;-68
2023/06/13 01:02:20;;;;;;;;;16.00;16.00;;;;;;;;4942434;28;46658;-68
2023/06/13 01:04:47;;;;;;;;;21.50;18.75;;;;;;;;4950084;28;45362;-68
2023/06/13 01:07:14;;;;;;;;;17.00;14.75;;;;;;;;4955860;28;45405;-68
2023/06/13 01:09:39;;;;;;;;;16.00;16.00;;;;;;;;4955429;28;45319;-68
2023/06/13 01:12:10;;;;;;;;;19.50;18.50;;;;;;;;4955501;28;47298;-69
2023/06/13 01:14:51;;;;;;;;;19.50;17.75;;;;;;;;4956266;28;45435;-68
2023/06/13 01:17:27;;;;;;;;;19.25;17.25;;;;;;;;4956202;28;45344;-68
2023/06/13 01:19:54;;;;;;;;;15.00;15.00;;;;;;;;4956830;28;45271;-68
2023/06/13 01:22:22;;;;;;;;;20.00;17.00;;;;;;;;4955933;28;46939;-68
2023/06/13 01:25:09;;;;;;;;;16.50;15.75;;;;;;;;4955391;28;45461;-68
2023/06/13 01:27:36;;;;;;;;;15.50;13.75;;;;;;;;4955654;28;45325;-68
2023/06/13 01:30:03;;;;;;;;;19.50;16.50;;;;;;;;4955761;28;45456;-68
2023/06/13 01:32:29;;;;;;;;;14.50;14.50;;;;;;;;4955890;28;48081;-69
2023/06/13 01:34:55;;;;;;;;;20.25;19.25;;;;;;;;4955901;28;45365;-68
2023/06/13 01:37:20;;;;;;;;;21.75;18.75;;;;;;;;4956249;28;46160;-69
2023/06/13 01:39:45;;;;;;;;;20.75;19.75;;;;;;;;4955957;28;45389;-68
2023/06/13 01:42:10;;;;;;;;;24.00;22.00;;;;;;;;4947736;28;46198;-68
2023/06/13 01:44:36;;;;;;;;;19.75;19.75;;;;;;;;4934917;28;46166;-68
2023/06/13 01:47:07;;;;;;;;;24.25;20.25;;;;;;;;4935644;28;45354;-68
2023/06/13 01:49:43;;;;;;;;;17.25;17.25;;;;;;;;4935745;28;45434;-68
2023/06/13 01:52:15;;;;;;;;;19.00;17.75;;;;;;;;4945910;28;46683;-68
2023/06/13 01:54:45;;;;;;;;;19.50;19.00;;;;;;;;4954850;28;45330;-68
2023/06/13 01:57:15;;;;;;;;;21.00;18.25;;;;;;;;4954953;28;45457;-69
2023/06/13 01:59:42;;;;;;;;;22.50;21.50;;;;;;;;4947345;28;45342;-68
2023/06/13 02:02:08;;;;;;;;;26.75;23.50;;;;;;;;4935845;28;46636;-68
2023/06/13 02:04:40;;;;;;;;;19.50;18.50;;;;;;;;4934352;28;45446;-68
2023/06/13 02:07:06;;;;;;;;;19.25;17.25;;;;;;;;4938014;28;45427;-69
2023/06/13 02:09:31;;;;;;;;;17.75;17.00;;;;;;;;4955689;28;45279;-68
2023/06/13 02:11:56;;;;;;;;;17.00;17.00;;;;;;;;4955732;28;46489;-69
2023/06/13 02:14:23;;;;;;;;;24.25;20.50;;;;;;;;4955942;28;45294;-69
2023/06/13 02:16:48;;;;;;;;;22.50;19.00;;;;;;;;4955722;28;45368;-69
2023/06/13 02:19:13;;;;;;;;;15.00;14.50;;;;;;;;4955251;28;45390;-68
2023/06/13 02:21:43;;;;;;;;;16.50;15.75;;;;;;;;4955381;28;46088;-69
2023/06/13 02:24:09;;;;;;;;;22.75;19.25;;;;;;;;4956047;28;45457;-69
2023/06/13 02:26:34;;;;;;;;;20.25;17.75;;;;;;;;4955228;28;45598;-69
2023/06/13 02:29:00;;;;;;;;;17.75;16.25;;;;;;;;4955581;28;45357;-69
2023/06/13 02:31:26;;;;;;;;;26.25;19.25;;;;;;;;4955412;28;46272;-69
2023/06/13 02:33:51;;;;;;;;;21.75;19.25;;;;;;;;4957418;28;45393;-69
2023/06/13 02:36:16;;;;;;;;;17.00;16.25;;;;;;;;4954525;28;45268;-69
2023/06/13 02:38:43;;;;;;;;;22.25;17.75;;;;;;;;4956937;28;45957;-69
2023/06/13 02:41:08;;;;;;;;;21.75;19.50;;;;;;;;4963448;28;46037;-69
2023/06/13 02:43:33;;;;;;;;;21.50;20.25;;;;;;;;4943768;28;45355;-69
2023/06/13 02:45:58;;;;;;;;;19.50;16.00;;;;;;;;4945378;28;45456;-69
2023/06/13 02:48:25;;;;;;;;;18.75;16.25;;;;;;;;4956729;28;46022;-69
2023/06/13 02:50:51;;;;;;;;;17.25;17.25;;;;;;;;4964095;28;45621;-69
2023/06/13 02:53:16;;;;;;;;;21.25;19.50;;;;;;;;4962303;28;45566;-69
2023/06/13 02:55:44;;;;;;;;;18.75;18.75;;;;;;;;4963305;28;45442;-69
2023/06/13 02:58:10;;;;;;;;;19.00;18.00;;;;;;;;4963761;28;45310;-69
2023/06/13 03:00:35;;;;;;;;;21.75;20.75;;;;;;;;4964464;28;46869;-69
2023/06/13 03:03:03;;;;;;;;;20.50;19.00;;;;;;;;4960934;28;45484;-69
2023/06/13 03:05:30;;;;;;;;;18.50;17.50;;;;;;;;4955006;28;45605;-69
2023/06/13 03:07:56;;;;;;;;;19.50;19.00;;;;;;;;4955140;28;45926;-69
2023/06/13 03:10:21;;;;;;;;;23.00;21.25;;;;;;;;4954696;28;46058;-70
2023/06/13 03:12:47;;;;;;;;;22.25;21.25;;;;;;;;4955253;28;45405;-69
2023/06/13 03:15:12;;;;;;;;;17.50;17.00;;;;;;;;4955107;28;45580;-70
2023/06/13 03:17:38;;;;;;;;;27.75;21.50;;;;;;;;4957394;28;45377;-69
2023/06/13 03:20:07;;;;;;;;;21.75;18.50;;;;;;;;4958287;28;47259;-69
2023/06/13 03:22:32;;;;;;;;;19.25;17.50;;;;;;;;4956025;28;45488;-68
2023/06/13 03:24:57;;;;;;;;;18.25;16.50;;;;;;;;4957721;28;45727;-68
2023/06/13 03:27:22;;;;;;;;;19.25;18.25;;;;;;;;4957332;28;45706;-69
2023/06/13 03:29:47;;;;;;;;;18.00;18.00;;;;;;;;4956859;28;46407;-68
2023/06/13 03:32:14;;;;;;;;;24.50;21.00;;;;;;;;4957086;28;45359;-69
2023/06/13 03:34:39;;;;;;;;;17.00;17.00;;;;;;;;4957365;28;45534;-69
2023/06/13 03:37:06;;;;;;;;;18.75;17.50;;;;;;;;4957987;28;45590;-68
2023/06/13 03:39:31;;;;;;;;;21.50;18.00;;;;;;;;4957770;28;47354;-69
2023/06/13 03:41:57;;;;;;;;;21.00;20.00;;;;;;;;4950615;28;45494;-68
2023/06/13 03:44:22;;;;;;;;;17.75;16.25;;;;;;;;4950470;28;45392;-68
2023/06/13 03:46:47;;;;;;;;;20.25;19.25;;;;;;;;4957941;28;45557;-68
2023/06/13 03:49:12;;;;;;;;;26.25;22.50;;;;;;;;4957665;28;46604;-68
2023/06/13 03:51:37;;;;;;;;;23.25;19.50;;;;;;;;4957582;28;45473;-68
2023/06/13 03:54:03;;;;;;;;;18.50;15.75;;;;;;;;4957286;28;45309;-69
2023/06/13 03:56:28;;;;;;;;;21.25;18.25;;;;;;;;4957939;28;45517;-69
2023/06/13 03:58:53;;;;;;;;;20.25;20.25;;;;;;;;4957530;28;46552;-66
2023/06/13 04:01:18;;;;;;;;;18.75;17.75;;;;;;;;4957887;28;45428;-68
2023/06/13 04:03:44;;;;;;;;;18.75;18.75;;;;;;;;4957277;28;45378;-68
2023/06/13 04:06:09;;;;;;;;;20.25;18.50;;;;;;;;4957675;28;45349;-68
2023/06/13 04:08:38;;;;;;;;;24.25;22.00;;;;;;;;4957284;28;46356;-68
2023/06/13 04:11:03;;;;;;;;;18.50;17.00;;;;;;;;4957236;28;45406;-68
2023/06/13 04:13:28;;;;;;;;;21.00;17.25;;;;;;;;4957634;28;45409;-68
2023/06/13 04:15:54;;;;;;;;;21.25;20.50;;;;;;;;4956963;28;45435;-68
2023/06/13 04:18:21;;;;;;;;;23.50;19.50;;;;;;;;4957124;28;47329;-68
2023/06/13 04:20:46;;;;;;;;;20.25;18.75;;;;;;;;4955954;28;45432;-69
2023/06/13 04:23:13;;;;;;;;;21.75;20.50;;;;;;;;4957015;28;45521;-68
2023/06/13 04:25:40;;;;;;;;;23.50;20.75;;;;;;;;4955780;28;45606;-66
2023/06/13 04:28:07;;;;;;;;;19.25;19.00;;;;;;;;4956588;28;46640;-68
2023/06/13 04:30:32;;;;;;;;;20.75;18.75;;;;;;;;4957336;28;45633;-69
2023/06/13 04:32:58;;;;;;;;;21.25;21.25;;;;;;;;4956660;28;45325;-68
2023/06/13 04:35:23;;;;;;;;;21.00;19.75;;;;;;;;4957662;28;45472;-68
2023/06/13 04:37:49;;;;;;;;;17.50;14.00;;;;;;;;4956872;28;46465;-68
2023/06/13 04:40:14;;;;;;;;;17.00;16.50;;;;;;;;4957415;28;45353;-68
2023/06/13 04:42:39;;;;;;;;;17.50;16.50;;;;;;;;4946001;28;45409;-68
2023/06/13 04:45:05;;;;;;;;;18.75;18.00;;;;;;;;4955084;28;45457;-68
2023/06/13 04:47:30;;;;;;;;;24.00;17.75;;;;;;;;4957008;28;46230;-67
2023/06/13 04:49:59;;;;;;;;;24.75;20.25;;;;;;;;4956963;28;45423;-67
2023/06/13 04:52:29;;;;;;;;;25.00;22.75;;;;;;;;4957477;28;45433;-68
2023/06/13 04:54:54;;;;;;;;;22.75;20.75;;;;;;;;4956525;28;45286;-68
2023/06/13 04:57:20;;;;;;;;;18.75;18.75;;;;;;;;4956404;28;47653;-68
2023/06/13 04:59:46;;;;;;;;;19.75;19.75;;;;;;;;4956378;28;45424;-67
2023/06/13 05:02:12;;;;;;;;;26.75;20.75;;;;;;;;4939223;28;45406;-68
2023/06/13 05:04:37;;;;;;;;;19.50;19.25;;;;;;;;4950400;28;45485;-67
2023/06/13 05:07:04;;;;;;;;;20.50;19.75;;;;;;;;4956104;28;45667;-67
2023/06/13 05:09:30;;;;;;;;;22.75;22.25;;;;;;;;4956375;28;45374;-67
2023/06/13 05:11:55;;;;;;;;;20.50;20.00;;;;;;;;4956683;28;45340;-67
2023/06/13 05:14:21;;;;;;;;;25.50;23.75;;;;;;;;4950019;28;45470;-68
2023/06/13 05:16:47;;;;;;;;;26.00;22.50;;;;;;;;4944865;28;46573;-68
2023/06/13 05:19:12;;;;;;;;;21.50;20.25;;;;;;;;4937408;28;45370;-68
2023/06/13 05:21:38;;;;;;;;;28.50;26.50;;;;;;;;4937416;28;45409;-68
2023/06/13 05:24:03;;;;;;;;;22.25;20.25;;;;;;;;4936792;28;45382;-68
2023/06/13 05:26:28;;;;;;;;;26.00;21.50;;;;;;;;4936267;28;45582;-68
2023/06/13 05:28:54;;;;;;;;;19.75;18.00;;;;;;;;4944449;28;45446;-68
2023/06/13 05:31:19;;;;;;;;;20.25;18.25;;;;;;;;4956171;28;45938;-68
2023/06/13 05:33:44;;;;;;;;;24.75;21.75;;;;;;;;4956801;28;45373;-68
2023/06/13 05:36:11;;;;;;;;;19.00;17.75;;;;;;;;4956377;28;47165;-68
2023/06/13 05:38:36;;;;;;;;;28.50;26.25;;;;;;;;4955111;28;45472;-67
2023/06/13 05:41:01;;;;;;;;;23.75;22.50;;;;;;;;4955939;28;45494;-68
2023/06/13 05:43:27;;;;;;;;;21.00;19.50;;;;;;;;4955023;28;45494;-68
2023/06/13 05:45:52;;;;;;;;;21.25;19.75;;;;;;;;4952074;28;46353;-68
2023/06/13 05:48:17;;;;;;;;;21.75;19.75;;;;;;;;4952836;28;45409;-68
2023/06/13 05:50:42;;;;;;;;;21.25;20.50;;;;;;;;4955565;28;45456;-69
2023/06/13 05:53:07;;;;;;;;;;;;;;;;;;4275739;28;20123798;-68
2023/06/13 05:55:33;;;;;;;;;20.20;17.80;;;;;;;;4950413;28;45338;-68
2023/06/13 05:57:58;;;;;;;;;18.50;18.50;;;;;;;;4944142;28;45378;-67
2023/06/13 06:00:23;;;;;;;;;23.50;22.25;;;;;;;;4951903;28;45414;-67
2023/06/13 06:02:48;;;;;;;;;24.25;21.25;;;;;;;;4936301;28;45556;-67
2023/06/13 06:05:14;;;;;;;;;21.75;20.50;;;;;;;;4947649;28;45461;-67
2023/06/13 06:07:43;;;;;;;;;25.50;21.50;;;;;;;;4950519;28;45460;-67
2023/06/13 06:10:09;;;;;;;;;25.00;23.00;;;;;;;;4951294;28;46529;-67
2023/06/13 06:12:34;;;;;;;;;17.50;17.50;;;;;;;;4953689;28;45329;-67
2023/06/13 06:15:00;;;;;;;;;24.00;23.00;;;;;;;;4953841;28;45483;-68
2023/06/13 06:17:25;;;;;;;;;26.00;22.00;;;;;;;;4950422;28;45819;-68
2023/06/13 06:19:50;;;;;;;;;24.00;22.25;;;;;;;;4946336;28;48190;-68
2023/06/13 06:22:16;;;;;;;;;21.75;19.75;;;;;;;;4942978;28;45525;-68
2023/06/13 06:24:42;;;;;;;;;27.50;22.50;;;;;;;;4949982;28;45465;-68
2023/06/13 06:27:07;;;;;;;;;23.00;22.00;;;;;;;;4938830;28;45435;-68
2023/06/13 06:29:32;;;;;;;;;19.25;19.25;;;;;;;;4950909;28;47288;-67
2023/06/13 06:31:57;;;;;;;;;23.75;23.50;;;;;;;;4923655;28;807421;-67
2023/06/13 06:34:22;;;;;;;;;25.25;24.50;;;;;;;;4947025;28;45719;-67
2023/06/13 06:36:48;;;;;;;;;23.75;22.25;;;;;;;;4949400;28;45510;-67
2023/06/13 06:46:07;;;;;;;;;;;;;;;;;;1855063;28;243071775;-67
2023/06/13 06:51:57;;;;;;;;;6.50;6.50;;;;;;;;2;235359307;235359307;-68
2023/06/13 06:59:57;;;;;;;;;24.50;24.50;;;;;;;;169678;28;234535302;-68
2023/06/13 07:07:28;;;;;;;;;27.50;26.50;;;;;;;;2;222266461;222266461;-68
2023/06/13 07:14:32;;;;;;;;;12.50;12.50;;;;;;;;2;219683578;219683578;-67
2023/06/13 07:22:07;;;;;;;;;18.00;18.00;;;;;;;;2;211641350;211641350;-68
2023/06/13 07:29:20;;;;;;;;;15.00;15.00;;;;;;;;2;231932212;231932212;-67
2023/06/13 07:36:56;;;;;;;;;11.50;11.50;;;;;;;;2;213005931;213005931;-68
2023/06/13 07:44:08;;;;;;;;;10.00;10.00;;;;;;;;2;227285455;227285455;-68
2023/06/13 07:49:14;;;;;;;;;11.00;11.00;;;;;;;;2;210724708;210724708;-68
2023/06/13 07:51:40;;;;;;;;;16.75;14.25;;;;;;;;4942567;28;45535;-68
2023/06/13 07:54:05;;;;;;;;;12.00;12.00;;;;;;;;4947866;28;45384;-67
2023/06/13 07:56:30;;;;;;;;;15.00;14.75;;;;;;;;4948821;28;45370;-68
2023/06/13 07:58:56;;;;;;;;;12.00;10.25;;;;;;;;4956004;28;46483;-67
2023/06/13 08:01:22;;;;;;;;;12.50;11.50;;;;;;;;4950031;28;45546;-68
2023/06/13 08:03:47;;;;;;;;;14.25;10.00;;;;;;;;4954101;28;45369;-68
2023/06/13 08:06:12;;;;;;;;;16.50;12.50;;;;;;;;4943347;28;45543;-68
2023/06/13 08:08:37;;;;;;;;;8.75;8.00;;;;;;;;4950856;28;46987;-68
2023/06/13 08:11:02;;;;;;;;;14.00;12.50;;;;;;;;4952706;28;45313;-68
2023/06/13 08:13:28;;;;;;;;;11.00;11.00;;;;;;;;4948255;28;45414;-67
2023/06/13 08:15:53;;;;;;;;;13.50;11.50;;;;;;;;4953864;28;45354;-67
2023/06/13 08:18:18;;;;;;;;;13.25;11.75;;;;;;;;4943442;28;45970;-68
2023/06/13 08:20:43;;;;;;;;;12.50;11.75;;;;;;;;4954285;28;45274;-67
2023/06/13 08:23:08;;;;;;;;;13.50;11.75;;;;;;;;4955361;28;45377;-68
2023/06/13 08:25:34;;;;;;;;;12.00;12.00;;;;;;;;4941545;28;45522;-67
2023/06/13 08:27:59;;;;;;;;;14.25;12.75;;;;;;;;4953969;28;45426;-68
2023/06/13 08:30:24;;;;;;;;;10.75;10.75;;;;;;;;4956577;28;45398;-68
2023/06/13 08:32:52;;;;;;;;;13.00;12.00;;;;;;;;4946931;28;45335;-68
2023/06/13 08:35:17;;;;;;;;;13.50;11.50;;;;;;;;4951160;28;45460;-68
2023/06/13 08:37:42;;;;;;;;;16.25;13.75;;;;;;;;4940597;28;45496;-68
2023/06/13 08:40:09;;;;;;;;;14.75;12.75;;;;;;;;4952648;28;45469;-67
2023/06/13 08:42:35;;;;;;;;;15.75;11.00;;;;;;;;4940276;28;45388;-68
2023/06/13 08:45:01;;;;;;;;;11.75;11.75;;;;;;;;4948656;28;45373;-68
2023/06/13 08:47:26;;;;;;;;;14.75;12.25;;;;;;;;4946844;28;46188;-67
2023/06/13 08:49:52;;;;;;;;;12.75;10.25;;;;;;;;4940407;28;45398;-67
2023/06/13 08:52:18;;;;;;;;;11.50;11.50;;;;;;;;4950182;28;45453;-67
2023/06/13 08:54:43;;;;;;;;;5.00;4.75;;;;;;;;4952086;28;45412;-68
2023/06/13 08:57:12;;;;;;;;;11.00;9.75;;;;;;;;4946927;28;45983;-68
2023/06/13 08:59:39;;;;;;;;;13.50;13.25;;;;;;;;4956395;28;45510;-68
2023/06/13 09:02:05;;;;;;;;;11.75;11.75;;;;;;;;4941163;28;45406;-68
2023/06/13 09:04:31;;;;;;;;;13.00;11.50;;;;;;;;4955545;28;45589;-68
2023/06/13 09:06:56;;;;;;;;;9.75;9.75;;;;;;;;4947080;28;46432;-68
2023/06/13 09:09:22;;;;;;;;;13.25;12.50;;;;;;;;4954528;28;45429;-68
2023/06/13 09:11:49;;;;;;;;;12.00;10.75;;;;;;;;4954561;28;45428;-67
2023/06/13 09:14:15;;;;;;;;;13.25;11.50;;;;;;;;4940346;28;45486;-68
2023/06/13 09:16:41;;;;;;;;;10.50;9.50;;;;;;;;4947761;28;46169;-68
2023/06/13 09:19:06;;;;;;;;;11.00;10.25;;;;;;;;4949002;28;45856;-68
2023/06/13 09:21:33;;;;;;;;;13.00;10.75;;;;;;;;4941125;28;45473;-68
2023/06/13 09:24:00;;;;;;;;;8.25;8.25;;;;;;;;4951964;28;45468;-68
2023/06/13 09:26:26;;;;;;;;;11.00;9.25;;;;;;;;4942923;28;45717;-68
2023/06/13 09:28:51;;;;;;;;;11.00;11.00;;;;;;;;4952596;28;45393;-68
2023/06/13 09:31:16;;;;;;;;;11.25;10.00;;;;;;;;4942869;28;45346;-68
2023/06/13 09:33:43;;;;;;;;;8.50;8.50;;;;;;;;4949401;28;45921;-68
2023/06/13 09:36:09;;;;;;;;;12.00;11.25;;;;;;;;4942228;28;46497;-68
2023/06/13 09:38:36;;;;;;;;;10.50;10.00;;;;;;;;4948855;28;45419;-68
2023/06/13 09:41:02;;;;;;;;;8.25;8.25;;;;;;;;4954027;28;45404;-68
2023/06/13 09:43:28;;;;;;;;;10.25;10.25;;;;;;;;4950798;28;45531;-68
2023/06/13 09:45:53;;;;;;;;;14.50;11.25;;;;;;;;4944795;28;45410;-68
2023/06/13 09:48:19;;;;;;;;;11.25;10.50;;;;;;;;4950787;28;45373;-68
2023/06/13 09:50:44;;;;;;;;;10.75;10.75;;;;;;;;4949580;28;45533;-68
2023/06/13 09:53:10;;;;;;;;;10.00;10.00;;;;;;;;4954545;28;45335;-68
2023/06/13 09:55:35;;;;;;;;;10.75;9.75;;;;;;;;4946140;28;46108;-68
2023/06/13 09:58:01;;;;;;;;;11.00;10.00;;;;;;;;4955100;28;45434;-68
2023/06/13 10:00:27;;;;;;;;;8.50;8.25;;;;;;;;4955372;28;45385;-68
2023/06/13 10:02:53;;;;;;;;;10.50;10.00;;;;;;;;4951605;28;45505;-67
2023/06/13 10:05:18;;;;;;;;;9.75;9.75;;;;;;;;4949702;28;46405;-68
2023/06/13 10:07:43;;;;;;;;;9.00;9.00;;;;;;;;4940865;28;45469;-68
2023/06/13 10:10:08;;;;;;;;;12.75;11.25;;;;;;;;4945641;28;45398;-67
2023/06/13 10:12:38;;;;;;;;;11.25;11.25;;;;;;;;4944210;28;45695;-68
2023/06/13 10:15:05;;;;;;;;;11.50;11.50;;;;;;;;4955134;28;47240;-68
2023/06/13 10:17:32;;;;;;;;;12.00;10.25;;;;;;;;4946137;28;45453;-68
2023/06/13 10:20:06;;;;;;;;;12.75;10.75;;;;;;;;4955191;28;45653;-68
2023/06/13 10:22:33;;;;;;;;;11.00;11.00;;;;;;;;4947538;28;45375;-68
2023/06/13 10:24:59;;;;;;;;;10.50;10.00;;;;;;;;4951139;28;45457;-68
2023/06/13 10:27:25;;;;;;;;;11.00;11.00;;;;;;;;4940771;28;45424;-68
2023/06/13 10:30:02;;;;;;;;;7.75;7.75;;;;;;;;4953320;28;45354;-68
2023/06/13 10:32:46;;;;;;;;;11.75;11.25;;;;;;;;4947850;28;45410;-67
2023/06/13 10:35:22;;;;;;;;;9.50;8.75;;;;;;;;4943265;28;45414;-67
2023/06/13 10:37:48;;;;;;;;;11.25;10.50;;;;;;;;4944594;28;46596;-68
2023/06/13 10:40:19;;;;;;;;;11.75;11.75;;;;;;;;4950424;28;45451;-67
2023/06/13 10:43:07;;;;;;;;;11.25;11.25;;;;;;;;4938058;28;45409;-67
2023/06/13 10:45:32;;;;;;;;;10.50;10.50;;;;;;;;4941042;28;46801;-67
2023/06/13 10:47:59;;;;;;;;;9.50;9.50;;;;;;;;4945921;28;45495;-67
2023/06/13 10:50:24;;;;;;;;;11.50;10.75;;;;;;;;4947455;28;45438;-68
2023/06/13 10:52:52;;;;;;;;;8.50;8.50;;;;;;;;4947343;28;45583;-68
2023/06/13 10:55:25;;;;;;;;;10.75;10.25;;;;;;;;4947841;28;46722;-68
2023/06/13 10:57:54;;;;;;;;;8.75;8.75;;;;;;;;4944198;28;45447;-68
2023/06/13 11:00:30;;;;;;;;;12.75;11.75;;;;;;;;4945536;28;45511;-67
2023/06/13 11:03:01;;;;;;;;;8.50;7.50;;;;;;;;4943543;28;45555;-69
2023/06/13 11:05:26;;;;;;;;;11.00;10.00;;;;;;;;4944162;28;45485;-70
2023/06/13 11:07:58;;;;;;;;;9.00;9.00;;;;;;;;4944558;28;45508;-69
2023/06/13 11:10:24;;;;;;;;;9.50;9.50;;;;;;;;4946766;28;45489;-69
2023/06/13 11:12:49;;;;;;;;;9.25;9.25;;;;;;;;4948754;28;46325;-69
2023/06/13 11:15:27;;;;;;;;;10.00;10.00;;;;;;;;4944239;28;45437;-69
2023/06/13 11:18:04;;;;;;;;;10.75;9.50;;;;;;;;4944968;28;45906;-68
2023/06/13 11:20:32;;;;;;;;;9.75;9.75;;;;;;;;4944162;28;45357;-67
2023/06/13 11:22:57;;;;;;;;;11.75;10.75;;;;;;;;4935061;28;45494;-68
2023/06/13 11:25:23;;;;;;;;;9.75;9.50;;;;;;;;4949611;28;47123;-68
2023/06/13 11:27:48;;;;;;;;;8.25;8.25;;;;;;;;4937768;28;45552;-68
2023/06/13 11:30:14;;;;;;;;;8.50;8.00;;;;;;;;4953850;28;45481;-69
2023/06/13 11:32:39;;;;;;;;;10.75;9.50;;;;;;;;4947754;28;45429;-68
2023/06/13 11:35:07;;;;;;;;;12.50;11.00;;;;;;;;4950945;28;47070;-68
2023/06/13 11:37:44;;;;;;;;;10.75;9.25;;;;;;;;4949858;28;45461;-68
2023/06/13 11:40:12;;;;;;;;;10.75;10.75;;;;;;;;4950467;28;45638;-68
2023/06/13 11:42:40;;;;;;;;;9.00;8.50;;;;;;;;4948745;28;45452;-68
2023/06/13 11:45:05;;;;;;;;;9.50;9.50;;;;;;;;4947791;28;46608;-68
2023/06/13 11:47:31;;;;;;;;;10.75;10.75;;;;;;;;4944386;28;45571;-68
2023/06/13 11:49:56;;;;;;;;;11.00;9.75;;;;;;;;4949416;28;45417;-67
2023/06/13 11:52:22;;;;;;;;;11.75;9.50;;;;;;;;4957259;28;45434;-67
2023/06/13 11:54:47;;;;;;;;;8.50;8.50;;;;;;;;4952102;28;47353;-67
2023/06/13 11:57:15;;;;;;;;;11.75;10.25;;;;;;;;4943014;28;45346;-68
2023/06/13 11:59:41;;;;;;;;;10.50;10.50;;;;;;;;4951383;28;45721;-68
2023/06/13 12:02:07;;;;;;;;;9.50;9.50;;;;;;;;4941522;28;45544;-67
2023/06/13 12:04:33;;;;;;;;;10.00;9.75;;;;;;;;4953687;28;45827;-67
2023/06/13 12:07:01;;;;;;;;;9.75;9.75;;;;;;;;4942376;28;45598;-67
2023/06/13 12:09:26;;;;;;;;;8.75;8.75;;;;;;;;4955149;28;45547;-67
2023/06/13 12:11:51;;;;;;;;;5.50;5.50;;;;;;;;4955896;28;45378;-67
2023/06/13 12:14:20;;;;;;;;;13.75;12.00;;;;;;;;4951292;28;47001;-67
2023/06/13 12:16:45;;;;;;;;;8.50;8.25;;;;;;;;4946514;28;46086;-68
2023/06/13 12:19:11;;;;;;;;;9.75;9.75;;;;;;;;4949619;28;45452;-67
2023/06/13 12:21:37;;;;;;;;;8.00;8.00;;;;;;;;4957000;28;45534;-67
2023/06/13 12:24:03;;;;;;;;;5.00;4.50;;;;;;;;4952273;28;46021;-67
2023/06/13 12:26:31;;;;;;;;;9.00;7.50;;;;;;;;4944529;28;45427;-67
2023/06/13 12:28:59;;;;;;;;;7.50;7.50;;;;;;;;4957238;28;45461;-68
2023/06/13 12:31:28;;;;;;;;;8.50;8.00;;;;;;;;4956542;28;45330;-68
2023/06/13 12:34:02;;;;;;;;;7.75;6.75;;;;;;;;4940489;28;45663;-68
2023/06/13 12:36:32;;;;;;;;;10.50;10.50;;;;;;;;4949217;28;45505;-68
2023/06/13 12:38:59;;;;;;;;;7.50;6.75;;;;;;;;4947157;28;45405;-67
2023/06/13 12:41:26;;;;;;;;;12.25;12.25;;;;;;;;4951803;28;45431;-68
2023/06/13 12:43:51;;;;;;;;;8.00;8.00;;;;;;;;4951105;28;47651;-68
2023/06/13 12:46:16;;;;;;;;;8.75;7.50;;;;;;;;4950532;28;45438;-68
2023/06/13 12:48:43;;;;;;;;;9.00;8.75;;;;;;;;4947924;28;45408;-68
2023/06/13 12:51:08;;;;;;;;;10.25;10.25;;;;;;;;4946305;28;45617;-68
2023/06/13 12:53:33;;;;;;;;;9.00;9.00;;;;;;;;4926418;28;48166;-68
2023/06/13 12:56:00;;;;;;;;;11.00;11.00;;;;;;;;4943933;28;45459;-68
2023/06/13 12:58:35;;;;;;;;;10.25;10.25;;;;;;;;4944475;28;45402;-67
2023/06/13 13:01:02;;;;;;;;;11.25;8.50;;;;;;;;4948129;28;45890;-66
2023/06/13 13:03:28;;;;;;;;;10.25;9.00;;;;;;;;4948649;28;47376;-67
2023/06/13 13:05:53;;;;;;;;;8.00;8.00;;;;;;;;4947158;28;45497;-67
2023/06/13 13:08:19;;;;;;;;;13.50;10.50;;;;;;;;4946490;28;45440;-67
2023/06/13 13:10:45;;;;;;;;;10.00;8.25;;;;;;;;4944973;28;45505;-67
2023/06/13 13:13:11;;;;;;;;;10.00;8.75;;;;;;;;4949294;28;45522;-67
2023/06/13 13:15:37;;;;;;;;;8.25;8.25;;;;;;;;4947984;28;45467;-67
2023/06/13 13:18:02;;;;;;;;;6.75;6.75;;;;;;;;4946602;28;45644;-68
2023/06/13 13:20:27;;;;;;;;;9.75;8.50;;;;;;;;4944987;28;45715;-68
2023/06/13 13:22:52;;;;;;;;;11.25;11.25;;;;;;;;4945178;28;45794;-69
2023/06/13 13:25:18;;;;;;;;;11.25;10.00;;;;;;;;4945190;28;45401;-66
2023/06/13 13:27:46;;;;;;;;;12.00;9.00;;;;;;;;4944289;28;45546;-69
2023/06/13 13:30:12;;;;;;;;;11.50;11.50;;;;;;;;4947522;28;45612;-68
2023/06/13 13:32:37;;;;;;;;;9.50;9.00;;;;;;;;4949959;28;46501;-67
2023/06/13 13:35:03;;;;;;;;;10.25;9.25;;;;;;;;4948984;28;45334;-66
2023/06/13 13:37:28;;;;;;;;;9.75;9.00;;;;;;;;4955943;28;45318;-67
2023/06/13 13:39:53;;;;;;;;;10.00;9.50;;;;;;;;4944884;28;45378;-68
2023/06/13 13:42:19;;;;;;;;;10.50;9.75;;;;;;;;4952044;28;45448;-68
2023/06/13 13:44:44;;;;;;;;;9.25;9.00;;;;;;;;4945453;28;45401;-67
2023/06/13 13:47:09;;;;;;;;;7.75;7.00;;;;;;;;4952856;28;45413;-67
2023/06/13 13:49:36;;;;;;;;;10.25;9.50;;;;;;;;4941218;28;45483;-67
2023/06/13 13:52:01;;;;;;;;;9.75;9.75;;;;;;;;4946226;28;46218;-67
2023/06/13 13:54:26;;;;;;;;;8.00;8.00;;;;;;;;4955995;28;45301;-67
2023/06/13 13:56:51;;;;;;;;;10.00;8.00;;;;;;;;4956468;28;45381;-67
2023/06/13 13:59:16;;;;;;;;;11.25;11.25;;;;;;;;4956120;28;45286;-67
2023/06/13 14:01:42;;;;;;;;;10.50;10.50;;;;;;;;4955676;28;45435;-67
2023/06/13 14:04:07;;;;;;;;;10.75;10.75;;;;;;;;4955765;28;45510;-66
2023/06/13 14:06:32;;;;;;;;;12.25;11.00;;;;;;;;4954864;28;45435;-66
2023/06/13 14:08:57;;;;;;;;;8.75;8.00;;;;;;;;4956164;28;45537;-67
2023/06/13 14:11:23;;;;;;;;;10.25;9.00;;;;;;;;4955478;28;46251;-67
2023/06/13 14:13:48;;;;;;;;;11.25;9.50;;;;;;;;4954167;28;45604;-67
2023/06/13 14:16:13;;;;;;;;;8.00;8.00;;;;;;;;4955909;28;45302;-67
2023/06/13 14:18:39;;;;;;;;;12.00;10.75;;;;;;;;4955792;28;45324;-67
2023/06/13 14:21:04;;;;;;;;;8.75;8.75;;;;;;;;4955789;28;47321;-67
2023/06/13 14:23:30;;;;;;;;;9.50;9.25;;;;;;;;4955559;28;45317;-68
2023/06/13 14:25:55;;;;;;;;;11.00;9.50;;;;;;;;4955616;28;45366;-66
2023/06/13 14:28:20;;;;;;;;;9.00;8.75;;;;;;;;4955196;28;45379;-67
2023/06/13 14:30:45;;;;;;;;;9.50;9.50;;;;;;;;4955859;28;47612;-66
2023/06/13 14:33:13;;;;;;;;;9.50;9.50;;;;;;;;4955457;28;45453;-67
2023/06/13 14:35:39;;;;;;;;;10.00;10.00;;;;;;;;4956048;28;45399;-68
2023/06/13 14:38:04;;;;;;;;;9.50;9.50;;;;;;;;4955858;28;45598;-67
2023/06/13 14:40:29;;;;;;;;;9.75;9.25;;;;;;;;4955176;28;46518;-68
2023/06/13 14:42:55;;;;;;;;;11.50;9.75;;;;;;;;4942112;28;45365;-68
2023/06/13 14:45:21;;;;;;;;;9.75;8.75;;;;;;;;4936382;28;45449;-68
2023/06/13 14:47:46;;;;;;;;;10.50;10.50;;;;;;;;4936510;28;45449;-68
2023/06/13 14:50:11;;;;;;;;;8.25;8.25;;;;;;;;4936252;28;46368;-68
2023/06/13 14:52:36;;;;;;;;;11.00;10.00;;;;;;;;4935965;28;45444;-67
2023/06/13 14:55:02;;;;;;;;;9.50;9.50;;;;;;;;4938391;28;45386;-68
2023/06/13 14:57:27;;;;;;;;;8.00;7.00;;;;;;;;4954097;28;45558;-68
2023/06/13 14:59:52;;;;;;;;;13.00;10.00;;;;;;;;4955526;28;46180;-67
2023/06/13 15:02:17;;;;;;;;;11.00;11.00;;;;;;;;4954359;28;45449;-67
2023/06/13 15:04:42;;;;;;;;;10.00;9.00;;;;;;;;4955532;28;45437;-67